Time;durP1;ratioP1;P1;durP2;ratioP2;P2;SDS_P1;SDS_P2;PMS_P1;PMS_P2;Temp;Humidity;BMP_temperature;BMP_pressure;BME280_temperature;BME280_humidity;BME280_pressure;Samples;Min_cycle;Max_cycle;Signal;HPM_P1;HPM_P2
2023/11/24 00:02:49;;;;;;;45.13;20.15;;;;;;;;;;6239058;28;20501;-65
2023/11/24 00:05:51;;;;;;;33.65;17.75;;;;;;;;;;6269838;28;20054;-65
2023/11/24 00:08:53;;;;;;;31.05;14.88;;;;;;;;;;6312592;28;20737;-65
2023/11/24 00:11:58;;;;;;;37.58;17.75;;;;;;;;;;6248029;28;20470;-65
2023/11/24 00:15:03;;;;;;;30.73;15.80;;;;;;;;;;6305459;28;20052;-65
2023/11/24 00:18:07;;;;;;;26.33;13.98;;;;;;;;;;6311898;28;20840;-65
2023/11/24 00:21:09;;;;;;;24.48;12.43;;;;;;;;;;6300623;28;20851;-65
2023/11/24 00:24:12;;;;;;;27.30;14.25;;;;;;;;;;6297870;28;20043;-65
2023/11/24 00:27:14;;;;;;;28.83;14.98;;;;;;;;;;6266850;28;20142;-65
2023/11/24 00:30:17;;;;;;;27.67;13.77;;;;;;;;;;6308921;28;20055;-65
2023/11/24 00:33:20;;;;;;;26.42;13.98;;;;;;;;;;6311319;28;20102;-65
2023/11/24 00:36:22;;;;;;;30.70;16.33;;;;;;;;;;6289927;28;20063;-63
2023/11/24 00:39:24;;;;;;;32.05;16.83;;;;;;;;;;6267698;28;20094;-65
2023/11/24 00:42:29;;;;;;;35.42;17.45;;;;;;;;;;6275300;28;20080;-65
2023/11/24 00:45:31;;;;;;;33.28;16.23;;;;;;;;;;6304743;28;20041;-65
2023/11/24 00:48:33;;;;;;;33.83;15.45;;;;;;;;;;6289608;28;20633;-65
2023/11/24 00:51:36;;;;;;;29.25;15.10;;;;;;;;;;6261335;28;20140;-65
2023/11/24 00:54:38;;;;;;;35.67;15.63;;;;;;;;;;6321437;28;20152;-65
2023/11/24 00:57:39;;;;;;;31.55;14.52;;;;;;;;;;6324463;28;20052;-65
2023/11/24 01:00:42;;;;;;;35.22;16.70;;;;;;;;;;6310199;28;20454;-65
2023/11/24 01:03:44;;;;;;;39.15;15.05;;;;;;;;;;6290447;28;20090;-65
2023/11/24 01:06:46;;;;;;;41.88;17.42;;;;;;;;;;6297529;28;20063;-65
2023/11/24 01:09:49;;;;;;;40.63;15.35;;;;;;;;;;6278709;28;20078;-65
2023/11/24 01:12:53;;;;;;;39.80;15.77;;;;;;;;;;6311284;28;20087;-65
2023/11/24 01:15:55;;;;;;;42.28;15.52;;;;;;;;;;6307441;28;20676;-65
2023/11/24 01:18:59;;;;;;;48.35;16.17;;;;;;;;;;6267749;28;20049;-65
2023/11/24 01:22:03;;;;;;;43.47;17.60;;;;;;;;;;6309879;28;20056;-65
2023/11/24 01:25:05;;;;;;;57.15;19.92;;;;;;;;;;6306712;28;20463;-65
2023/11/24 01:28:07;;;;;;;43.75;15.15;;;;;;;;;;6311843;28;20065;-65
2023/11/24 01:31:09;;;;;;;91.47;18.35;;;;;;;;;;6309998;28;20137;-65
2023/11/24 01:34:14;;;;;;;52.13;16.40;;;;;;;;;;6262009;28;20929;-65
2023/11/24 01:37:16;;;;;;;89.63;19.33;;;;;;;;;;6310661;28;20139;-65
2023/11/24 01:40:18;;;;;;;82.13;17.98;;;;;;;;;;6261546;28;20186;-65
2023/11/24 01:43:20;;;;;;;81.72;17.90;;;;;;;;;;6295931;28;20052;-65
2023/11/24 01:46:23;;;;;;;67.68;17.15;;;;;;;;;;6310673;28;20058;-65
2023/11/24 01:49:27;;;;;;;37.53;15.65;;;;;;;;;;6318124;28;20063;-65
2023/11/24 01:52:30;;;;;;;43.33;16.40;;;;;;;;;;6284341;28;20090;-64
2023/11/24 01:55:32;;;;;;;49.10;14.40;;;;;;;;;;6309466;28;20481;-64
2023/11/24 01:58:34;;;;;;;67.97;15.93;;;;;;;;;;6292540;28;20438;-64
2023/11/24 02:01:36;;;;;;;56.42;13.75;;;;;;;;;;6286986;28;20494;-64
2023/11/24 02:04:39;;;;;;;53.88;14.95;;;;;;;;;;6291657;28;20144;-64
2023/11/24 02:07:44;;;;;;;58.85;13.80;;;;;;;;;;6217669;28;20633;-64
2023/11/24 02:10:46;;;;;;;59.70;12.95;;;;;;;;;;6243627;28;20718;-64
2023/11/24 02:13:51;;;;;;;56.20;14.35;;;;;;;;;;6292680;28;20048;-64
2023/11/24 02:16:53;;;;;;;39.65;13.48;;;;;;;;;;6247098;28;20162;-65
2023/11/24 02:19:57;;;;;;;26.33;12.85;;;;;;;;;;6280273;28;20071;-65
2023/11/24 02:23:00;;;;;;;34.33;11.68;;;;;;;;;;6266773;28;20055;-65
2023/11/24 02:26:02;;;;;;;29.30;12.55;;;;;;;;;;6239789;28;20041;-65
2023/11/24 02:29:04;;;;;;;27.63;12.30;;;;;;;;;;6309594;28;20544;-65
2023/11/24 02:32:08;;;;;;;29.48;12.63;;;;;;;;;;6290674;28;20048;-65
2023/11/24 02:35:10;;;;;;;31.80;12.25;;;;;;;;;;6293206;28;20193;-65
2023/11/24 02:38:12;;;;;;;27.98;12.60;;;;;;;;;;6288566;28;20051;-65
2023/11/24 02:41:15;;;;;;;28.13;12.52;;;;;;;;;;6303477;28;20063;-65
2023/11/24 02:44:17;;;;;;;26.15;11.30;;;;;;;;;;6308600;28;20048;-65
2023/11/24 02:47:20;;;;;;;25.98;11.13;;;;;;;;;;6288962;28;20048;-65
2023/11/24 02:50:23;;;;;;;23.73;10.93;;;;;;;;;;6292717;28;20153;-65
2023/11/24 02:53:25;;;;;;;26.42;11.70;;;;;;;;;;6237736;28;20051;-65
2023/11/24 02:56:27;;;;;;;24.98;11.82;;;;;;;;;;6309275;28;20155;-65
2023/11/24 02:59:29;;;;;;;23.90;11.90;;;;;;;;;;6299470;28;20089;-66
2023/11/24 03:02:31;;;;;;;26.55;11.43;;;;;;;;;;6307396;28;20541;-65
2023/11/24 03:05:34;;;;;;;21.33;10.90;;;;;;;;;;6307850;28;20508;-65
2023/11/24 03:08:36;;;;;;;24.75;12.82;;;;;;;;;;6291247;28;20565;-65
2023/11/24 03:11:38;;;;;;;21.52;10.68;;;;;;;;;;6287345;28;20044;-65
2023/11/24 03:14:42;;;;;;;28.08;11.93;;;;;;;;;;6266739;28;20052;-64
2023/11/24 03:17:45;;;;;;;20.88;10.48;;;;;;;;;;6294621;28;20059;-64
2023/11/24 03:20:47;;;;;;;19.02;9.38;;;;;;;;;;6277048;28;20056;-64
2023/11/24 03:23:49;;;;;;;19.67;12.80;;;;;;;;;;6307130;28;20105;-65
2023/11/24 03:26:51;;;;;;;21.67;11.13;;;;;;;;;;6295884;28;20060;-65
2023/11/24 03:29:54;;;;;;;22.40;11.15;;;;;;;;;;6313534;28;20051;-65
2023/11/24 03:32:56;;;;;;;20.52;10.50;;;;;;;;;;6255683;28;20420;-65
2023/11/24 03:35:59;;;;;;;20.83;10.95;;;;;;;;;;6294012;28;20079;-64
2023/11/24 03:39:01;;;;;;;21.17;11.60;;;;;;;;;;6306891;28;20060;-65
2023/11/24 03:42:03;;;;;;;19.70;10.73;;;;;;;;;;6299512;28;20133;-65
2023/11/24 03:45:06;;;;;;;20.17;10.13;;;;;;;;;;6250417;28;20100;-65
2023/11/24 03:48:09;;;;;;;21.45;10.27;;;;;;;;;;6228257;28;20058;-65
2023/11/24 03:51:18;;;;;;;18.05;9.35;;;;;;;;;;6268849;28;20698;-65
2023/11/24 03:54:21;;;;;;;14.93;9.82;;;;;;;;;;6292292;28;20048;-65
2023/11/24 03:57:24;;;;;;;18.35;10.10;;;;;;;;;;6294474;28;20560;-65
2023/11/24 04:00:28;;;;;;;48.17;22.00;;;;;;;;;;6302696;28;20052;-64
2023/11/24 04:03:30;;;;;;;50.85;25.63;;;;;;;;;;6312093;28;20052;-65
2023/11/24 04:06:32;;;;;;;43.65;23.25;;;;;;;;;;6284355;28;20052;-65
2023/11/24 04:09:34;;;;;;;24.95;12.70;;;;;;;;;;6308810;28;20126;-65
2023/11/24 04:12:36;;;;;;;30.42;16.15;;;;;;;;;;6312389;28;20094;-65
2023/11/24 04:15:38;;;;;;;42.47;17.50;;;;;;;;;;6305538;28;20054;-65
2023/11/24 04:18:41;;;;;;;37.15;17.15;;;;;;;;;;6307639;28;20605;-65
2023/11/24 04:21:43;;;;;;;91.70;22.40;;;;;;;;;;6291364;28;20508;-65
2023/11/24 04:24:45;;;;;;;86.10;15.57;;;;;;;;;;6250126;28;20054;-65
2023/11/24 04:27:47;;;;;;;91.93;15.00;;;;;;;;;;6297329;28;20052;-65
2023/11/24 04:30:49;;;;;;;99.55;14.32;;;;;;;;;;6311597;28;20040;-65
2023/11/24 04:33:51;;;;;;;96.63;14.70;;;;;;;;;;6300124;28;20151;-64
2023/11/24 04:36:53;;;;;;;65.82;12.55;;;;;;;;;;6280268;28;20055;-65
2023/11/24 04:39:57;;;;;;;87.97;10.73;;;;;;;;;;6307309;28;20052;-65
2023/11/24 04:42:59;;;;;;;95.55;12.48;;;;;;;;;;6312043;28;20056;-65
2023/11/24 04:46:02;;;;;;;75.25;15.98;;;;;;;;;;6304975;28;20051;-65
2023/11/24 04:49:05;;;;;;;88.30;21.05;;;;;;;;;;6311363;28;20068;-64
2023/11/24 04:52:07;;;;;;;59.85;19.25;;;;;;;;;;6311647;28;20048;-64
2023/11/24 04:55:09;;;;;;;65.68;18.77;;;;;;;;;;6248604;28;20057;-64
2023/11/24 04:58:11;;;;;;;60.47;18.45;;;;;;;;;;6295964;28;20144;-65
2023/11/24 05:01:14;;;;;;;72.60;23.45;;;;;;;;;;6303047;28;20101;-66
2023/11/24 05:04:16;;;;;;;45.17;15.10;;;;;;;;;;6310339;28;20040;-65
2023/11/24 05:07:19;;;;;;;64.43;17.00;;;;;;;;;;6308921;28;20150;-65
2023/11/24 05:10:21;;;;;;;46.13;13.55;;;;;;;;;;6310862;28;20060;-65
2023/11/24 05:13:23;;;;;;;45.85;13.40;;;;;;;;;;6302539;28;20047;-65
2023/11/24 05:16:26;;;;;;;51.22;9.95;;;;;;;;;;6308537;28;20048;-65
2023/11/24 05:19:29;;;;;;;36.67;7.78;;;;;;;;;;6304018;28;20063;-65
2023/11/24 05:22:31;;;;;;;51.78;9.15;;;;;;;;;;6314788;28;20189;-65
2023/11/24 05:25:33;;;;;;;41.28;11.48;;;;;;;;;;6308361;28;20047;-65
2023/11/24 05:28:35;;;;;;;38.83;9.20;;;;;;;;;;6307456;28;20158;-65
2023/11/24 05:31:37;;;;;;;43.40;11.23;;;;;;;;;;6264360;28;20116;-65
2023/11/24 05:34:39;;;;;;;57.10;10.55;;;;;;;;;;6309812;28;20051;-65
2023/11/24 05:37:41;;;;;;;82.95;15.32;;;;;;;;;;6301507;28;20105;-66
2023/11/24 05:40:45;;;;;;;113.25;21.33;;;;;;;;;;6306644;28;20052;-65
2023/11/24 05:43:48;;;;;;;77.72;20.98;;;;;;;;;;6308583;28;20056;-65
2023/11/24 05:46:50;;;;;;;83.97;23.42;;;;;;;;;;6310084;28;20811;-65
2023/11/24 05:49:52;;;;;;;79.68;23.52;;;;;;;;;;6307280;28;20052;-65
2023/11/24 05:52:54;;;;;;;50.72;16.58;;;;;;;;;;6309183;28;20048;-65
2023/11/24 05:55:57;;;;;;;43.75;18.20;;;;;;;;;;6310949;28;20142;-66
2023/11/24 05:58:59;;;;;;;41.72;17.23;;;;;;;;;;6310257;28;20071;-66
2023/11/24 06:02:03;;;;;;;38.17;15.00;;;;;;;;;;6313344;28;20063;-65
2023/11/24 06:05:06;;;;;;;28.40;13.40;;;;;;;;;;6311275;28;20039;-67
2023/11/24 06:08:08;;;;;;;25.30;12.20;;;;;;;;;;6305112;28;20052;-67
2023/11/24 06:11:10;;;;;;;22.17;11.60;;;;;;;;;;6307521;28;20681;-67
2023/11/24 06:14:12;;;;;;;20.17;10.85;;;;;;;;;;6303219;28;20056;-67
2023/11/24 06:17:14;;;;;;;20.38;11.95;;;;;;;;;;6315863;28;20047;-66
2023/11/24 06:20:16;;;;;;;20.42;11.18;;;;;;;;;;6309205;28;20060;-67
2023/11/24 06:23:18;;;;;;;25.05;15.50;;;;;;;;;;6289366;28;20058;-67
2023/11/24 06:26:20;;;;;;;28.73;17.30;;;;;;;;;;6255818;28;20044;-66
2023/11/24 06:29:24;;;;;;;28.80;18.85;;;;;;;;;;6286054;28;20051;-66
2023/11/24 06:32:26;;;;;;;19.95;11.25;;;;;;;;;;6310976;28;20058;-66
2023/11/24 06:35:29;;;;;;;21.75;13.05;;;;;;;;;;6318499;28;20048;-66
2023/11/24 06:38:31;;;;;;;22.95;13.00;;;;;;;;;;6320038;28;20117;-66
2023/11/24 06:41:33;;;;;;;28.38;14.55;;;;;;;;;;6322315;28;20075;-67
2023/11/24 06:44:35;;;;;;;28.23;15.93;;;;;;;;;;6292298;28;20044;-67
2023/11/24 06:47:39;;;;;;;23.95;12.10;;;;;;;;;;6293333;28;20549;-66
2023/11/24 06:50:41;;;;;;;24.65;13.80;;;;;;;;;;6274288;28;20911;-67
2023/11/24 06:53:43;;;;;;;23.38;12.95;;;;;;;;;;6302494;28;20048;-67
2023/11/24 06:56:45;;;;;;;21.77;12.75;;;;;;;;;;6301199;28;20054;-67
2023/11/24 06:59:47;;;;;;;23.83;14.93;;;;;;;;;;6295950;28;20544;-67
2023/11/24 07:02:49;;;;;;;19.52;11.80;;;;;;;;;;6315404;28;20048;-67
2023/11/24 07:05:51;;;;;;;16.00;11.13;;;;;;;;;;6303243;28;20055;-72
2023/11/24 07:08:54;;;;;;;19.90;12.15;;;;;;;;;;6310461;28;20121;-69
2023/11/24 07:11:55;;;;;;;15.90;9.30;;;;;;;;;;6312921;28;20055;-65
2023/11/24 07:15:01;;;;;;;17.38;9.85;;;;;;;;;;6313890;28;20055;-66
2023/11/24 07:18:03;;;;;;;14.32;8.82;;;;;;;;;;6318143;28;20047;-66
2023/11/24 07:21:05;;;;;;;33.55;20.85;;;;;;;;;;6311605;28;20043;-66
2023/11/24 07:24:07;;;;;;;18.73;11.05;;;;;;;;;;6312549;28;20127;-66
2023/11/24 07:27:09;;;;;;;84.28;51.63;;;;;;;;;;6311927;28;20048;-66
2023/11/24 07:30:13;;;;;;;17.30;10.68;;;;;;;;;;6312740;28;20056;-66
2023/11/24 07:33:15;;;;;;;12.70;8.35;;;;;;;;;;6316047;28;20100;-65
2023/11/24 07:36:21;;;;;;;11.98;7.20;;;;;;;;;;6318142;28;20035;-65
2023/11/24 07:39:23;;;;;;;14.73;10.88;;;;;;;;;;6317153;28;20063;-76
2023/11/24 07:42:25;;;;;;;13.75;8.40;;;;;;;;;;6286066;28;20043;-68
2023/11/24 07:45:27;;;;;;;18.52;11.02;;;;;;;;;;6310893;28;20135;-72
2023/11/24 07:48:29;;;;;;;18.27;10.73;;;;;;;;;;6309354;28;20055;-71
2023/11/24 07:51:31;;;;;;;34.42;17.65;;;;;;;;;;6274074;28;20628;-67
2023/11/24 07:54:33;;;;;;;16.90;9.55;;;;;;;;;;6313303;28;20434;-66
2023/11/24 07:57:35;;;;;;;20.38;10.05;;;;;;;;;;6310744;28;20048;-66
2023/11/24 08:00:39;;;;;;;24.88;15.18;;;;;;;;;;6292603;28;20055;-65
2023/11/24 08:03:41;;;;;;;116.40;65.57;;;;;;;;;;6296088;28;20069;-67
2023/11/24 08:06:45;;;;;;;38.60;22.52;;;;;;;;;;6281097;28;20052;-67
2023/11/24 08:09:47;;;;;;;19.08;12.68;;;;;;;;;;6304327;28;20479;-67
2023/11/24 08:12:49;;;;;;;17.42;12.13;;;;;;;;;;6309443;28;20142;-76
2023/11/24 08:15:52;;;;;;;17.83;11.23;;;;;;;;;;6318552;28;20059;-76
2023/11/24 08:18:55;;;;;;;24.58;18.73;;;;;;;;;;6248308;28;20052;-76
2023/11/24 08:21:58;;;;;;;22.48;15.60;;;;;;;;;;6207653;28;20058;-76
2023/11/24 08:25:09;;;;;;;21.58;13.68;;;;;;;;;;6242686;28;20049;-76
2023/11/24 08:28:12;;;;;;;19.60;12.45;;;;;;;;;;6293346;28;20205;-76
2023/11/24 08:31:16;;;;;;;16.73;12.25;;;;;;;;;;6292201;28;20059;-76
2023/11/24 08:34:18;;;;;;;17.70;12.00;;;;;;;;;;6276719;28;20151;-76
2023/11/24 08:37:20;;;;;;;19.70;10.90;;;;;;;;;;6259105;28;20105;-76
2023/11/24 08:40:24;;;;;;;18.17;11.57;;;;;;;;;;6271263;28;20052;-76
2023/11/24 08:43:26;;;;;;;18.38;10.50;;;;;;;;;;6258527;28;20048;-76
2023/11/24 08:46:28;;;;;;;15.60;10.23;;;;;;;;;;6277785;28;20202;-76
2023/11/24 08:49:32;;;;;;;18.90;12.70;;;;;;;;;;6263296;28;20060;-76
2023/11/24 08:52:34;;;;;;;18.23;10.32;;;;;;;;;;6277666;28;20083;-76
2023/11/24 08:55:36;;;;;;;19.63;12.75;;;;;;;;;;6292293;28;20036;-76
2023/11/24 08:58:38;;;;;;;21.08;13.02;;;;;;;;;;6289802;28;20542;-76
2023/11/24 09:01:40;;;;;;;18.92;10.80;;;;;;;;;;6303520;28;20063;-76
2023/11/24 09:04:44;;;;;;;25.35;13.93;;;;;;;;;;6291760;28;20052;-76
2023/11/24 09:07:47;;;;;;;16.70;11.27;;;;;;;;;;6280217;28;20048;-76
2023/11/24 09:10:49;;;;;;;26.35;15.23;;;;;;;;;;6266390;28;20048;-76
2023/11/24 09:13:54;;;;;;;21.30;12.48;;;;;;;;;;6284537;28;20055;-75
2023/11/24 09:16:56;;;;;;;28.83;17.75;;;;;;;;;;6294203;28;20052;-76
2023/11/24 09:19:58;;;;;;;30.08;17.42;;;;;;;;;;6301988;28;20048;-77
2023/11/24 09:23:00;;;;;;;41.05;26.58;;;;;;;;;;6294118;28;20052;-76
2023/11/24 09:26:06;;;;;;;34.75;25.27;;;;;;;;;;6300699;28;20051;-75
2023/11/24 09:29:08;;;;;;;24.67;13.77;;;;;;;;;;6306193;28;20043;-76
2023/11/24 09:32:11;;;;;;;22.33;13.70;;;;;;;;;;6250039;28;20149;-75
2023/11/24 09:35:13;;;;;;;28.80;14.90;;;;;;;;;;6258353;28;20197;-76
2023/11/24 09:38:15;;;;;;;25.20;15.80;;;;;;;;;;6251917;28;20086;-76
2023/11/24 09:41:19;;;;;;;28.33;17.10;;;;;;;;;;6270870;28;20136;-77
2023/11/24 09:44:21;;;;;;;27.55;17.33;;;;;;;;;;6283994;28;20048;-76
2023/11/24 09:47:23;;;;;;;26.40;15.93;;;;;;;;;;6296188;28;20083;-76
2023/11/24 09:50:26;;;;;;;25.52;14.93;;;;;;;;;;6273537;28;20574;-76
2023/11/24 09:53:36;;;;;;;27.98;19.58;;;;;;;;;;6284303;28;20059;-76
2023/11/24 09:56:43;;;;;;;25.73;13.45;;;;;;;;;;6282640;28;20056;-75
2023/11/24 09:59:46;;;;;;;26.67;14.65;;;;;;;;;;6276215;28;20143;-76
2023/11/24 10:02:51;;;;;;;17.92;9.63;;;;;;;;;;6303023;28;20063;-77
2023/11/24 10:05:54;;;;;;;28.02;16.70;;;;;;;;;;6290316;28;20044;-72
2023/11/24 10:08:57;;;;;;;26.70;15.80;;;;;;;;;;6291260;28;20149;-81
2023/11/24 10:11:59;;;;;;;28.85;16.92;;;;;;;;;;6290681;28;20063;-69
2023/11/24 10:15:04;;;;;;;24.02;15.98;;;;;;;;;;6271707;28;20054;-80
2023/11/24 10:18:07;;;;;;;26.10;14.02;;;;;;;;;;6268180;28;20074;-78
2023/11/24 10:21:10;;;;;;;20.50;12.32;;;;;;;;;;6298009;28;20063;-78
2023/11/24 10:24:40;;;;;;;20.08;12.68;;;;;;;;;;6289645;28;20044;-79
2023/11/24 10:27:42;;;;;;;21.45;12.55;;;;;;;;;;6292915;28;20069;-79
2023/11/24 10:30:45;;;;;;;19.23;12.45;;;;;;;;;;6308248;28;20804;-79
2023/11/24 10:33:48;;;;;;;29.40;18.75;;;;;;;;;;6315947;28;20055;-79
2023/11/24 10:36:52;;;;;;;30.02;17.77;;;;;;;;;;6298942;28;20908;-79
2023/11/24 10:40:00;;;;;;;25.15;14.90;;;;;;;;;;6283464;28;20048;-79
2023/11/24 10:43:04;;;;;;;26.45;14.45;;;;;;;;;;6304497;28;20055;-67
2023/11/24 10:46:07;;;;;;;23.10;13.55;;;;;;;;;;6308901;28;20059;-66
2023/11/24 10:49:35;;;;;;;25.45;14.05;;;;;;;;;;6299267;28;20574;-69
2023/11/24 10:52:47;;;;;;;20.42;13.43;;;;;;;;;;6306300;28;20052;-75
2023/11/24 10:55:50;;;;;;;25.98;14.75;;;;;;;;;;6294030;28;20044;-75
2023/11/24 11:24:39;;;;;;;25.13;14.65;;;;;;;;;;6357311;27;20051;-80
2023/11/24 11:28:46;;;;;;;29.42;15.75;;;;;;;;;;6325075;22;20086;-71
2023/11/24 11:31:51;;;;;;;29.83;16.83;;;;;;;;;;6313352;28;20522;-72
2023/11/24 11:34:55;;;;;;;28.40;16.73;;;;;;;;;;6303713;28;20052;-74
2023/11/24 11:37:59;;;;;;;29.85;19.58;;;;;;;;;;6275009;28;20588;-71
2023/11/24 11:41:04;;;;;;;34.17;18.63;;;;;;;;;;6263352;28;20139;-72
2023/11/24 11:44:40;;;;;;;35.15;19.13;;;;;;;;;;6323181;28;20067;-77
2023/11/24 11:47:52;;;;;;;31.75;19.67;;;;;;;;;;6311840;28;20051;-78
2023/11/24 11:50:57;;;;;;;39.15;23.83;;;;;;;;;;6315113;28;20036;-76
2023/11/24 11:54:01;;;;;;;31.67;18.02;;;;;;;;;;6279318;28;20048;-77
2023/11/24 11:57:03;;;;;;;33.53;18.52;;;;;;;;;;6265700;28;20054;-76
2023/11/24 12:00:08;;;;;;;36.28;19.17;;;;;;;;;;6286275;28;20063;-77
2023/11/24 12:03:12;;;;;;;31.38;17.08;;;;;;;;;;6304449;28;20291;-76
2023/11/24 12:06:15;;;;;;;30.20;17.63;;;;;;;;;;6276688;28;20055;-77
2023/11/24 12:09:19;;;;;;;27.10;17.52;;;;;;;;;;6291361;28;20063;-76
2023/11/24 12:12:22;;;;;;;27.15;16.73;;;;;;;;;;6301845;28;21102;-78
2023/11/24 12:15:25;;;;;;;27.50;16.70;;;;;;;;;;6299463;28;20048;-77
2023/11/24 12:18:28;;;;;;;24.55;14.52;;;;;;;;;;6274333;28;20557;-78
2023/11/24 12:21:31;;;;;;;23.30;15.23;;;;;;;;;;6281582;28;20051;-78
2023/11/24 12:24:36;;;;;;;25.65;13.80;;;;;;;;;;6268206;28;20100;-78
2023/11/24 12:27:47;;;;;;;25.38;14.82;;;;;;;;;;6270871;28;20080;-78
2023/11/24 12:30:50;;;;;;;58.00;32.58;;;;;;;;;;6188401;28;20901;-78
2023/11/24 12:33:52;;;;;;;42.08;26.33;;;;;;;;;;6287284;28;20055;-78
2023/11/24 12:36:55;;;;;;;43.85;21.25;;;;;;;;;;6301083;28;20569;-79
2023/11/24 12:40:00;;;;;;;39.65;21.70;;;;;;;;;;6300038;28;20422;-78
2023/11/24 12:43:06;;;;;;;22.88;12.80;;;;;;;;;;6314429;28;20056;-78
2023/11/24 12:46:21;;;;;;;23.25;13.18;;;;;;;;;;6282554;28;20050;-77
2023/11/24 12:49:24;;;;;;;19.88;11.40;;;;;;;;;;6303716;28;20055;-79
2023/11/24 12:52:30;;;;;;;21.95;14.32;;;;;;;;;;6293344;28;20249;-80
2023/11/24 12:55:33;;;;;;;19.35;12.80;;;;;;;;;;6261313;28;20052;-80
2023/11/24 12:58:38;;;;;;;18.98;12.10;;;;;;;;;;6304913;28;20067;-79
2023/11/24 13:01:42;;;;;;;19.02;12.15;;;;;;;;;;6304967;28;20055;-79
2023/11/24 13:04:44;;;;;;;20.17;12.10;;;;;;;;;;6273934;28;20048;-80
2023/11/24 13:07:48;;;;;;;22.80;13.90;;;;;;;;;;6285234;28;20040;-79
2023/11/24 13:10:53;;;;;;;25.33;15.10;;;;;;;;;;6299840;28;20541;-79
2023/11/24 13:13:55;;;;;;;22.95;14.90;;;;;;;;;;6304732;28;20704;-79
2023/11/24 13:16:57;;;;;;;31.83;17.13;;;;;;;;;;6295501;28;20588;-79
2023/11/24 13:20:00;;;;;;;66.47;34.90;;;;;;;;;;6316046;28;20052;-80
2023/11/24 13:23:03;;;;;;;58.55;37.30;;;;;;;;;;6292915;28;20482;-80
2023/11/24 13:26:05;;;;;;;35.97;23.25;;;;;;;;;;6284074;28;20614;-79
2023/11/24 13:29:07;;;;;;;35.88;20.98;;;;;;;;;;6306336;28;20043;-79
2023/11/24 13:32:11;;;;;;;47.88;27.27;;;;;;;;;;6290680;28;20884;-79
2023/11/24 13:35:16;;;;;;;29.00;18.30;;;;;;;;;;6271319;28;20049;-79
2023/11/24 13:38:19;;;;;;;23.10;15.15;;;;;;;;;;6291228;28;20122;-78
2023/11/24 13:41:21;;;;;;;45.10;31.73;;;;;;;;;;6301844;28;20052;-79
2023/11/24 13:44:24;;;;;;;34.05;23.58;;;;;;;;;;6265449;28;20197;-79
2023/11/24 13:47:27;;;;;;;46.20;28.83;;;;;;;;;;6285320;28;20138;-78
2023/11/24 13:50:31;;;;;;;34.75;21.63;;;;;;;;;;6292670;28;20052;-79
2023/11/24 13:53:36;;;;;;;32.60;21.10;;;;;;;;;;6303954;28;20434;-78
2023/11/24 13:56:41;;;;;;;30.02;19.30;;;;;;;;;;6303325;28;20048;-79
2023/11/24 13:59:44;;;;;;;26.40;18.40;;;;;;;;;;6288074;28;20097;-80
2023/11/24 14:02:46;;;;;;;27.67;17.02;;;;;;;;;;6266931;28;20640;-79
2023/11/24 14:05:51;;;;;;;27.52;19.40;;;;;;;;;;6289229;28;20186;-80
2023/11/24 14:08:52;;;;;;;29.85;17.88;;;;;;;;;;6314609;28;20074;-79
2023/11/24 14:11:56;;;;;;;31.67;22.00;;;;;;;;;;6310556;28;20491;-80
2023/11/24 14:15:00;;;;;;;38.28;24.83;;;;;;;;;;6292949;28;20067;-78
2023/11/24 14:18:06;;;;;;;40.08;25.40;;;;;;;;;;6273300;28;20706;-78
2023/11/24 14:21:09;;;;;;;34.20;23.27;;;;;;;;;;6304114;28;20052;-78
2023/11/24 14:24:11;;;;;;;26.10;14.73;;;;;;;;;;6250194;28;20139;-79
2023/11/24 14:27:15;;;;;;;28.95;19.48;;;;;;;;;;6285358;28;20056;-80
2023/11/24 14:30:18;;;;;;;34.35;24.45;;;;;;;;;;6251457;28;20040;-78
2023/11/24 14:33:21;;;;;;;21.33;14.70;;;;;;;;;;6270146;28;20079;-79
2023/11/24 14:36:26;;;;;;;26.60;15.68;;;;;;;;;;6283239;28;20037;-77
2023/11/24 14:39:32;;;;;;;24.73;13.38;;;;;;;;;;6276601;28;20556;-75
2023/11/24 14:42:36;;;;;;;24.23;13.45;;;;;;;;;;6296633;28;20052;-78
2023/11/24 14:45:40;;;;;;;23.08;12.23;;;;;;;;;;6304353;28;20055;-78
2023/11/24 14:48:44;;;;;;;22.95;13.40;;;;;;;;;;6289829;28;20058;-78
2023/11/24 14:51:47;;;;;;;24.05;15.20;;;;;;;;;;6310799;28;20269;-77
2023/11/24 14:54:54;;;;;;;20.77;12.77;;;;;;;;;;6311325;28;20068;-76
2023/11/24 14:57:58;;;;;;;22.38;12.10;;;;;;;;;;6297236;28;20041;-77
2023/11/24 15:01:03;;;;;;;23.17;14.13;;;;;;;;;;6292205;28;20040;-77
2023/11/24 15:04:13;;;;;;;20.65;13.00;;;;;;;;;;6272166;28;20049;-76
2023/11/24 15:07:29;;;;;;;21.60;12.80;;;;;;;;;;6274083;28;20036;-76
2023/11/24 15:10:34;;;;;;;30.70;22.73;;;;;;;;;;6306961;28;20135;-78
2023/11/24 15:13:36;;;;;;;26.20;15.77;;;;;;;;;;6287096;28;20064;-77
2023/11/24 15:20:08;;;;;;;36.38;22.60;;;;;;;;;;6296047;28;20067;-79
2023/11/24 15:23:27;;;;;;;26.42;17.63;;;;;;;;;;6286334;28;20159;-78
2023/11/24 15:26:30;;;;;;;50.13;33.90;;;;;;;;;;6290625;28;20040;-78
2023/11/24 15:29:35;;;;;;;35.40;23.42;;;;;;;;;;6288029;28;20044;-78
2023/11/24 15:32:37;;;;;;;45.75;31.60;;;;;;;;;;6268617;28;20495;-78
2023/11/24 15:35:41;;;;;;;39.85;24.27;;;;;;;;;;6299451;28;20616;-78
2023/11/24 15:38:52;;;;;;;30.95;21.42;;;;;;;;;;6262827;28;20053;-78
2023/11/24 15:41:54;;;;;;;30.85;19.40;;;;;;;;;;6307230;28;20138;-79
2023/11/24 15:44:58;;;;;;;37.58;25.08;;;;;;;;;;6293858;28;20076;-78
2023/11/24 15:48:03;;;;;;;26.58;18.25;;;;;;;;;;6297739;28;20083;-78
2023/11/24 15:51:11;;;;;;;20.48;13.50;;;;;;;;;;6297621;28;20063;-77
2023/11/24 15:54:16;;;;;;;20.58;12.52;;;;;;;;;;6315898;28;20082;-76
2023/11/24 15:57:20;;;;;;;21.02;13.18;;;;;;;;;;6342083;28;20530;-77
2023/11/24 16:00:33;;;;;;;31.75;23.40;;;;;;;;;;6318122;28;20055;-77
2023/11/24 16:03:36;;;;;;;26.27;18.42;;;;;;;;;;6278827;28;20050;-77
2023/11/24 16:06:40;;;;;;;33.92;16.80;;;;;;;;;;6276656;28;20036;-78
2023/11/24 16:09:42;;;;;;;25.83;17.67;;;;;;;;;;6319691;28;20044;-78
2023/11/24 16:12:48;;;;;;;43.88;23.88;;;;;;;;;;6295700;28;20561;-77
2023/11/24 16:15:51;;;;;;;24.27;15.88;;;;;;;;;;6317832;28;20052;-78
2023/11/24 16:18:54;;;;;;;21.65;12.55;;;;;;;;;;6281257;28;20036;-78
2023/11/24 16:21:56;;;;;;;27.42;16.17;;;;;;;;;;6268906;28;20059;-80
2023/11/24 16:25:01;;;;;;;17.52;11.43;;;;;;;;;;6294598;28;20124;-78
2023/11/24 16:28:04;;;;;;;24.85;16.35;;;;;;;;;;6293925;28;20052;-78
2023/11/24 16:31:06;;;;;;;32.85;19.50;;;;;;;;;;6329612;28;20063;-79
2023/11/24 16:34:10;;;;;;;32.85;21.05;;;;;;;;;;6298361;28;20613;-76
2023/11/24 16:37:12;;;;;;;27.40;15.93;;;;;;;;;;6316500;28;20145;-77
2023/11/24 16:40:15;;;;;;;30.98;15.98;;;;;;;;;;6315972;28;20048;-79
2023/11/24 16:43:18;;;;;;;40.85;23.48;;;;;;;;;;6301274;28;20051;-78
2023/11/24 16:46:21;;;;;;;95.80;37.75;;;;;;;;;;6301084;28;20151;-79
2023/11/24 16:49:25;;;;;;;22.52;13.30;;;;;;;;;;6270017;28;20356;-81
2023/11/24 16:52:27;;;;;;;24.35;13.68;;;;;;;;;;6291187;28;20048;-79
2023/11/24 16:55:30;;;;;;;60.47;26.23;;;;;;;;;;6289214;28;20494;-79
2023/11/24 16:58:33;;;;;;;26.42;19.10;;;;;;;;;;6258180;28;20525;-77
2023/11/24 17:01:37;;;;;;;22.48;13.00;;;;;;;;;;6284136;28;20055;-78
2023/11/24 17:04:40;;;;;;;23.58;14.45;;;;;;;;;;6274145;28;20051;-76
2023/11/24 17:07:43;;;;;;;30.58;22.73;;;;;;;;;;6269183;28;20040;-80
2023/11/24 17:10:45;;;;;;;22.10;14.70;;;;;;;;;;6271410;28;20794;-77
2023/11/24 17:13:48;;;;;;;28.05;18.30;;;;;;;;;;6295842;28;20442;-79
2023/11/24 17:16:51;;;;;;;20.05;14.00;;;;;;;;;;6312061;28;20048;-78
2023/11/24 17:19:55;;;;;;;23.80;15.23;;;;;;;;;;6301566;28;20046;-77
2023/11/24 17:22:57;;;;;;;28.17;18.75;;;;;;;;;;6279283;28;20610;-79
2023/11/24 17:25:59;;;;;;;27.83;18.33;;;;;;;;;;6295028;28;20052;-78
2023/11/24 17:29:03;;;;;;;32.53;21.95;;;;;;;;;;6274636;28;20738;-84
2023/11/24 17:32:05;;;;;;;30.73;20.58;;;;;;;;;;6293867;28;20059;-79
2023/11/24 17:35:12;;;;;;;30.60;19.25;;;;;;;;;;6309301;28;20042;-78
2023/11/24 17:38:15;;;;;;;45.10;25.10;;;;;;;;;;6291567;28;20052;-79
2023/11/24 17:41:22;;;;;;;36.63;22.33;;;;;;;;;;6294668;28;20062;-80
2023/11/24 17:44:32;;;;;;;18.20;11.95;;;;;;;;;;6292443;28;20595;-78
2023/11/24 17:47:38;;;;;;;21.27;13.40;;;;;;;;;;6315633;28;20052;-77
2023/11/24 17:50:42;;;;;;;29.80;19.35;;;;;;;;;;6295204;28;20061;-79
2023/11/24 17:53:45;;;;;;;17.77;10.32;;;;;;;;;;6324596;28;20089;-79
2023/11/24 17:56:49;;;;;;;23.92;12.85;;;;;;;;;;6281465;28;20048;-78
2023/11/24 17:59:53;;;;;;;19.13;10.80;;;;;;;;;;6274449;28;20055;-79
2023/11/24 18:02:59;;;;;;;19.50;9.32;;;;;;;;;;6284973;28;20574;-79
2023/11/24 18:06:02;;;;;;;15.98;8.50;;;;;;;;;;6294069;28;20055;-78
2023/11/24 18:09:05;;;;;;;17.40;9.20;;;;;;;;;;6307554;28;20056;-78
2023/11/24 18:12:08;;;;;;;15.32;9.00;;;;;;;;;;6309084;28;20040;-80
2023/11/24 18:15:13;;;;;;;26.75;14.98;;;;;;;;;;6272635;28;20058;-78
2023/11/24 18:18:17;;;;;;;22.77;11.57;;;;;;;;;;6311955;28;20105;-79
2023/11/24 18:21:24;;;;;;;99.03;50.25;;;;;;;;;;6310452;28;20045;-79